Bridgeport, OH (43912)

9:25 AM EDT on July 25, 2016 (GMT -0400)
Virginia Street | | Change Station

Elev 712 ft 40.09 °N, 80.74 °W | Updated 3 minutes ago

Clear
Clear
86.4 °F
Feels Like 97 °F
N
2.7
Wind Variable Wind from South

Today
High -- | Low -- °F
--% Chance of Precip.
Yesterday
High -- | Low -- °F
Precip. -- in
Pressure 29.98 in
Visibility 9.0 miles
Clouds Clear
Heat Index 97 °F
Dew Point 77 °F
Humidity 73%
Rainfall 0.00 in
Snow Depth Not available.
6:15 AM 8:43 PM
Waning Gibbous, 66% visible
METAR KHLG 251253Z 20006KT 9SM CLR 28/23 A3000 RMK AO2 SLP150 T02780228
Pressure 29.98 in
Visibility 9.0 miles
Clouds Clear
Heat Index 97 °F
Dew Point 77 °F
Humidity 73%
Rainfall 0.00 in
Snow Depth Not available.
6:15 AM 8:43 PM
Waning Gibbous, 66% visible
METAR KHLG 251253Z 20006KT 9SM CLR 28/23 A3000 RMK AO2 SLP150 T02780228

10-Day Weather Forecast

Almanac

Astronomy

Jul. 25, 2016 Rise Set
Actual Time
Civil Twilight
Nautical Twilight
Astronomical Twilight
Moon
Length of Visible Light
Length of Day
Tomorrow will be .
, % of the Moon is Illuminated

Today's Extremes

State Highs State Lows

Community

WunderPhotos

Upload Photos

1,927,300 photos uploaded!

WunderBlog® & News

Nearby

Air Quality

  Air Quality AQ Index Pollutant
Not available.

Snow Depth

Station Depth Elevation

Earthquake Activity

City Distance Mag. Time & Date
Minimum magnitude displayed is 2.5.

Coastal Water Temperatures

Place Temperature

Stations

Nearby Weather Stations

Station Location Temp. Windchill Dew Point Humidity Wind Precip. Elev Updated Type
                   

Watches & Warnings

There are currently no watches in effect.